Time;durP1;ratioP1;P1;durP2;ratioP2;P2;SDS_P1;SDS_P2;PMS_P1;PMS_P2;Temp;Humidity;BMP_temperature;BMP_pressure;BME280_temperature;BME280_humidity;BME280_pressure;Samples;Min_cycle;Max_cycle;Signal;HPM_P1;HPM_P2
2021/12/31 00:01:01;;;;;;;3.73;1.33;;;;;;;15.26;63.05;97330.13;5071361;28;20174;-68
2021/12/31 00:03:27;;;;;;;4.57;1.90;;;;;;;15.09;63.61;97329.47;5065575;28;20181;-67
2021/12/31 00:05:52;;;;;;;2.80;1.50;;;;;;;15.13;63.33;97329.94;5073362;28;20269;-68
2021/12/31 00:08:18;;;;;;;1.80;1.53;;;;;;;15.25;63.00;97339.06;5073540;28;20566;-67
2021/12/31 00:10:44;;;;;;;3.27;1.60;;;;;;;15.25;63.23;97340.88;5073641;28;20277;-67
2021/12/31 00:13:10;;;;;;;1.93;1.20;;;;;;;15.33;62.87;97340.81;5073909;28;20201;-67
2021/12/31 00:15:38;;;;;;;4.97;1.23;;;;;;;15.23;63.28;97340.25;5066209;28;20457;-67
2021/12/31 00:18:04;;;;;;;1.77;1.47;;;;;;;15.22;63.43;97335.97;5060504;28;20198;-67
2021/12/31 00:20:30;;;;;;;1.70;1.50;;;;;;;15.31;63.27;97332.25;5067199;28;20827;-68
2021/12/31 00:25:27;;;;;;;2.10;1.40;;;;;;;14.84;64.99;97336.75;5073408;28;20179;-67
2021/12/31 00:27:52;;;;;;;2.20;1.40;;;;;;;15.10;64.46;97335.56;5072852;28;20433;-68
2021/12/31 00:30:18;;;;;;;3.90;2.47;;;;;;;15.11;64.59;97331.91;5064645;28;20405;-66
2021/12/31 00:32:44;;;;;;;4.63;1.70;;;;;;;15.08;64.77;97337.53;5072825;28;20575;-67
2021/12/31 00:35:10;;;;;;;2.70;1.50;;;;;;;14.73;66.04;97333.53;5072265;28;20288;-68
2021/12/31 00:37:38;;;;;;;3.10;2.00;;;;;;;14.81;66.27;97342.38;5054826;28;20637;-69
2021/12/31 00:40:07;;;;;;;1.77;1.63;;;;;;;14.70;66.73;97338.34;5071481;28;20436;-69
2021/12/31 00:42:33;;;;;;;3.03;1.40;;;;;;;14.96;65.71;97334.53;5073542;28;20558;-68
2021/12/31 00:44:58;;;;;;;2.07;1.60;;;;;;;15.00;65.45;97335.78;5073429;28;20420;-69
2021/12/31 00:47:24;;;;;;;3.80;2.10;;;;;;;14.79;66.12;97334.63;5062939;28;20549;-67
2021/12/31 00:49:49;;;;;;;1.40;1.30;;;;;;;14.87;65.81;97329.28;5072042;28;20262;-68
2021/12/31 00:52:15;;;;;;;2.17;1.97;;;;;;;14.89;65.62;97329.13;5072546;28;20547;-67
2021/12/31 00:54:41;;;;;;;3.63;1.50;;;;;;;14.82;65.84;97323.75;5073374;28;20210;-67
2021/12/31 00:57:06;;;;;;;3.40;1.70;;;;;;;14.66;66.44;97332.56;5070620;28;20202;-68
2021/12/31 00:59:34;;;;;;;3.07;1.60;;;;;;;14.76;65.90;97332.34;5064544;28;20701;-68
2021/12/31 01:02:05;;;;;;;2.30;1.67;;;;;;;14.77;65.77;97333.97;5070333;28;20946;-66
2021/12/31 01:04:32;;;;;;;2.10;1.37;;;;;;;14.77;65.77;97330.53;5072149;28;20954;-68
2021/12/31 01:06:58;;;;;;;4.07;1.73;;;;;;;14.73;65.90;97335.34;5071505;28;20452;-68
2021/12/31 01:09:25;;;;;;;2.83;1.93;;;;;;;14.59;66.25;97340.34;5071822;28;20519;-69
2021/12/31 01:11:50;;;;;;;1.83;1.63;;;;;;;14.52;66.60;97339.38;5062318;28;20797;-67
2021/12/31 01:14:35;;;;;;;2.93;1.90;;;;;;;14.59;66.30;97340.34;5071763;28;20448;-69
2021/12/31 01:17:05;;;;;;;3.07;1.73;;;;;;;14.57;66.21;97342.34;5070016;28;20206;-68
2021/12/31 01:19:45;;;;;;;7.70;2.17;;;;;;;14.56;66.08;97339.84;5063153;28;20835;-67
2021/12/31 01:22:15;;;;;;;2.60;1.80;;;;;;;14.43;66.63;97338.59;5066419;28;20792;-69
2021/12/31 01:24:41;;;;;;;1.70;1.50;;;;;;;14.49;66.35;97344.19;5071663;28;20490;-68
2021/12/31 01:27:06;;;;;;;2.03;1.80;;;;;;;14.46;66.17;97342.75;5069894;28;20460;-69
2021/12/31 01:29:32;;;;;;;5.77;2.37;;;;;;;14.24;66.72;97337.22;5063570;28;20209;-67
2021/12/31 01:31:57;;;;;;;1.90;1.60;;;;;;;13.73;68.58;97349.97;5071388;28;20282;-67
2021/12/31 01:34:24;;;;;;;1.90;1.77;;;;;;;14.06;67.36;97345.38;5071379;28;20302;-69
2021/12/31 01:36:51;;;;;;;2.00;1.70;;;;;;;13.92;67.81;97344.28;5071113;28;20229;-68
2021/12/31 01:39:16;;;;;;;3.10;1.60;;;;;;;13.90;67.83;97340.19;5071051;28;20428;-67
2021/12/31 01:41:42;;;;;;;4.27;1.47;;;;;;;13.89;67.46;97346.44;5071208;28;20429;-68
2021/12/31 01:44:08;;;;;;;5.10;1.90;;;;;;;13.78;67.78;97345.84;5071020;28;20243;-68
2021/12/31 01:46:36;;;;;;;1.90;1.73;;;;;;;13.74;67.79;97346.31;5069815;28;20217;-68
2021/12/31 01:49:03;;;;;;;2.40;2.07;;;;;;;13.66;67.99;97345.34;5069656;28;20425;-69
2021/12/31 01:51:29;;;;;;;3.87;1.90;;;;;;;13.50;68.62;97346.22;5071415;28;20432;-68
2021/12/31 01:53:55;;;;;;;3.03;1.60;;;;;;;13.71;67.83;97346.66;5062791;28;20504;-68
2021/12/31 01:56:22;;;;;;;2.17;1.53;;;;;;;13.60;68.13;97351.31;5070981;28;20533;-67
2021/12/31 01:58:53;;;;;;;2.43;1.70;;;;;;;13.49;68.65;97349.84;5059991;28;20425;-68
2021/12/31 02:01:19;;;;;;;2.60;1.80;;;;;;;13.26;69.52;97348.84;5070950;28;20428;-68
2021/12/31 02:03:45;;;;;;;3.33;1.87;;;;;;;13.54;68.39;97338.81;5070828;28;20420;-68
2021/12/31 02:06:10;;;;;;;3.47;1.70;;;;;;;13.47;68.28;97343.91;5070949;28;20174;-67
2021/12/31 02:08:36;;;;;;;1.70;1.60;;;;;;;13.27;69.04;97340.78;5071151;28;20174;-69
2021/12/31 02:11:02;;;;;;;2.03;1.60;;;;;;;13.20;69.62;97330.09;5062373;28;20805;-67
2021/12/31 02:13:28;;;;;;;4.47;1.90;;;;;;;13.28;68.78;97342.44;5069592;28;20240;-67
2021/12/31 02:15:54;;;;;;;1.90;1.37;;;;;;;13.26;69.35;97338.31;5069455;28;20208;-67
2021/12/31 02:18:20;;;;;;;3.97;1.77;;;;;;;13.19;69.22;97333.72;5071220;28;20437;-68
2021/12/31 02:20:48;;;;;;;2.33;1.60;;;;;;;13.19;69.33;97327.63;5070667;28;20178;-68
2021/12/31 02:23:20;;;;;;;2.70;1.80;;;;;;;13.36;68.75;97333.69;5061251;28;20545;-68
2021/12/31 02:25:45;;;;;;;3.53;1.80;;;;;;;13.24;68.86;97327.94;5066899;28;20424;-68
2021/12/31 02:28:11;;;;;;;3.90;2.27;;;;;;;13.21;68.90;97328.31;5068385;28;20436;-68
2021/12/31 02:30:36;;;;;;;3.10;1.70;;;;;;;13.28;68.50;97324.00;5065753;28;20182;-66
2021/12/31 02:33:03;;;;;;;2.90;1.73;;;;;;;13.35;68.31;97330.25;5070834;28;20200;-68
2021/12/31 02:35:30;;;;;;;2.73;1.50;;;;;;;13.24;68.10;97335.03;5069413;28;20707;-70
2021/12/31 02:37:56;;;;;;;3.20;1.50;;;;;;;13.28;68.21;97329.28;5070505;28;20955;-68
2021/12/31 02:40:23;;;;;;;2.53;1.83;;;;;;;13.21;68.41;97331.75;5070514;28;20420;-67
2021/12/31 02:42:49;;;;;;;2.70;1.63;;;;;;;13.30;67.92;97329.09;5070846;28;20194;-68
2021/12/31 02:45:15;;;;;;;3.13;2.00;;;;;;;13.00;68.81;97326.16;5070835;28;20781;-68
2021/12/31 02:47:45;;;;;;;2.43;1.97;;;;;;;13.00;69.06;97323.53;5070397;28;20217;-68
2021/12/31 02:50:18;;;;;;;2.20;1.80;;;;;;;13.01;69.21;97318.09;5070335;28;20239;-68
2021/12/31 02:52:44;;;;;;;1.83;1.63;;;;;;;13.02;68.96;97317.13;5070601;28;20901;-68
2021/12/31 02:55:11;;;;;;;1.80;1.37;;;;;;;13.07;68.46;97313.97;5070186;28;20543;-69
2021/12/31 02:57:40;;;;;;;4.80;1.73;;;;;;;13.06;68.72;97312.34;5067444;28;21000;-67
2021/12/31 03:00:07;;;;;;;5.20;1.90;;;;;;;12.95;68.66;97305.63;5062614;28;20897;-68
2021/12/31 03:02:37;;;;;;;2.50;1.77;;;;;;;13.03;68.65;97308.22;5071135;28;20420;-67
2021/12/31 03:05:03;;;;;;;2.50;1.50;;;;;;;13.01;68.79;97309.41;5062252;28;20944;-68
2021/12/31 03:07:29;;;;;;;2.17;1.60;;;;;;;12.73;69.39;97302.63;5068816;28;20888;-67
2021/12/31 03:09:55;;;;;;;5.00;2.03;;;;;;;12.84;69.50;97304.13;5070200;28;20502;-67
2021/12/31 03:12:22;;;;;;;4.20;1.90;;;;;;;12.97;68.88;97298.38;5061970;28;20412;-68
2021/12/31 03:14:48;;;;;;;3.30;2.10;;;;;;;12.76;69.63;97301.50;5071257;28;20452;-70
2021/12/31 03:17:14;;;;;;;2.23;1.50;;;;;;;12.71;70.05;97294.13;5072600;28;20493;-68
2021/12/31 03:19:39;;;;;;;1.87;1.63;;;;;;;12.54;70.45;97293.25;5073868;28;20425;-68
2021/12/31 03:22:05;;;;;;;2.60;1.50;;;;;;;12.70;70.19;97291.63;5072002;28;20175;-69
2021/12/31 03:24:32;;;;;;;3.33;1.43;;;;;;;12.65;70.11;97294.75;5075115;28;20174;-68
2021/12/31 03:26:57;;;;;;;3.57;1.80;;;;;;;12.63;70.28;97290.66;5072347;28;20463;-68
2021/12/31 03:29:23;;;;;;;3.63;1.50;;;;;;;12.64;70.36;97290.47;5066221;28;20503;-68
2021/12/31 03:31:49;;;;;;;2.80;1.70;;;;;;;12.64;69.77;97287.84;5073658;28;20209;-66
2021/12/31 03:34:15;;;;;;;3.40;1.70;;;;;;;12.58;69.55;97294.59;5073647;28;20622;-68
2021/12/31 03:36:42;;;;;;;2.63;1.43;;;;;;;12.55;69.85;97299.34;5073058;28;20194;-68
2021/12/31 03:39:08;;;;;;;3.97;1.90;;;;;;;12.48;70.09;97301.81;5073155;28;20193;-68
2021/12/31 03:41:34;;;;;;;2.40;1.63;;;;;;;12.54;70.11;97295.06;5073635;28;20425;-67
2021/12/31 03:43:59;;;;;;;3.70;2.17;;;;;;;12.55;69.88;97299.34;5073511;28;20423;-68
2021/12/31 03:46:25;;;;;;;1.73;1.60;;;;;;;12.52;70.18;97302.28;5073268;28;20182;-66
2021/12/31 03:48:50;;;;;;;3.17;1.80;;;;;;;12.33;70.52;97306.88;5073084;28;20602;-68
2021/12/31 03:51:16;;;;;;;2.20;2.00;;;;;;;12.25;70.97;97315.56;5072930;28;20273;-69
2021/12/31 03:53:42;;;;;;;2.13;1.50;;;;;;;11.98;71.77;97313.97;5073503;28;20246;-68
2021/12/31 03:56:07;;;;;;;7.50;1.93;;;;;;;12.04;71.97;97305.47;5073210;28;20238;-67
2021/12/31 03:58:33;;;;;;;4.10;2.00;;;;;;;12.09;71.94;97305.00;5064471;28;20211;-67
2021/12/31 04:00:58;;;;;;;3.67;2.00;;;;;;;11.97;72.06;97304.44;5070967;28;20182;-67
2021/12/31 04:03:24;;;;;;;4.60;2.07;;;;;;;11.75;73.09;97308.44;5073080;28;20186;-68
2021/12/31 04:05:53;;;;;;;3.87;2.00;;;;;;;11.65;73.56;97298.06;5072785;28;20179;-70
2021/12/31 04:08:19;;;;;;;4.43;2.00;;;;;;;11.62;73.80;97299.19;5073160;28;20202;-69
2021/12/31 04:10:45;;;;;;;3.73;2.00;;;;;;;11.33;74.87;97299.53;5072884;28;20417;-67
2021/12/31 04:13:10;;;;;;;6.47;2.30;;;;;;;11.67;74.29;97302.16;5072580;28;20428;-67
2021/12/31 04:15:36;;;;;;;4.13;2.03;;;;;;;11.78;73.93;97308.94;5066104;28;20461;-68
2021/12/31 04:18:01;;;;;;;3.10;1.80;;;;;;;11.66;74.05;97299.72;5069433;28;20300;-69
2021/12/31 04:20:39;;;;;;;5.50;2.27;;;;;;;11.51;74.47;97313.41;5063911;28;20656;-67
2021/12/31 04:23:12;;;;;;;2.17;1.70;;;;;;;11.49;74.98;97304.88;5069360;28;20206;-67
2021/12/31 04:25:38;;;;;;;3.23;2.10;;;;;;;11.42;75.42;97303.00;5065699;28;20477;-68
2021/12/31 04:28:05;;;;;;;4.40;1.87;;;;;;;11.61;74.21;97296.72;5068860;28;20437;-69
2021/12/31 04:30:31;;;;;;;3.63;2.00;;;;;;;11.75;74.02;97298.75;5066502;28;20231;-69
2021/12/31 04:32:56;;;;;;;2.57;2.37;;;;;;;11.68;74.30;97292.50;5072227;28;20417;-68
2021/12/31 04:35:22;;;;;;;2.27;2.07;;;;;;;11.76;74.20;97287.28;5067797;28;20203;-68
2021/12/31 04:37:47;;;;;;;2.50;1.97;;;;;;;11.75;73.46;97298.75;5068968;28;20202;-69
2021/12/31 04:40:14;;;;;;;4.47;2.27;;;;;;;11.89;73.13;97294.72;5072248;28;20178;-69
2021/12/31 04:42:41;;;;;;;4.50;2.03;;;;;;;11.71;73.86;97292.19;5072124;28;20195;-68
2021/12/31 04:45:08;;;;;;;7.60;2.10;;;;;;;11.68;74.10;97285.44;5063910;28;20409;-67
2021/12/31 04:47:34;;;;;;;2.47;2.10;;;;;;;11.78;73.61;97287.94;5071832;28;20463;-67
2021/12/31 04:50:00;;;;;;;2.40;2.03;;;;;;;11.93;73.16;97284.72;5059571;28;20433;-68
2021/12/31 04:52:25;;;;;;;6.43;2.13;;;;;;;11.85;72.81;97277.63;5063873;28;20570;-67
2021/12/31 04:54:51;;;;;;;2.67;2.47;;;;;;;12.00;72.11;97283.13;5054630;28;20207;-68
2021/12/31 04:57:16;;;;;;;2.70;1.90;;;;;;;11.89;72.14;97278.13;5052871;28;20688;-68
2021/12/31 04:59:42;;;;;;;2.33;1.80;;;;;;;12.12;71.84;97278.41;5063685;28;20194;-68
2021/12/31 05:02:07;;;;;;;3.93;2.27;;;;;;;12.15;71.22;97280.72;5051884;28;20198;-68
2021/12/31 05:04:33;;;;;;;4.53;2.50;;;;;;;12.13;70.58;97280.06;5051945;28;20257;-69
2021/12/31 05:06:59;;;;;;;3.17;2.90;;;;;;;12.07;70.79;97284.16;5053112;28;20210;-69
2021/12/31 05:09:24;;;;;;;2.83;1.90;;;;;;;12.05;70.68;97288.72;5058079;28;20183;-69
2021/12/31 05:11:50;;;;;;;2.27;2.00;;;;;;;12.02;70.38;97277.72;5059917;28;20189;-69
2021/12/31 05:14:16;;;;;;;2.40;2.20;;;;;;;11.94;70.51;97278.50;5051540;28;20270;-67
2021/12/31 05:16:42;;;;;;;2.17;1.80;;;;;;;11.92;70.56;97278.63;5059864;28;20300;-68
2021/12/31 05:19:07;;;;;;;2.30;1.83;;;;;;;11.71;72.05;97273.81;5047983;28;20423;-71
2021/12/31 05:21:33;;;;;;;4.10;2.27;;;;;;;11.72;72.33;97280.69;5048830;28;20190;-67
2021/12/31 05:23:59;;;;;;;3.93;2.30;;;;;;;11.72;72.45;97285.94;5053170;28;20191;-68
2021/12/31 05:26:25;;;;;;;3.60;2.33;;;;;;;11.76;72.31;97286.47;5051311;28;20313;-66
2021/12/31 05:28:50;;;;;;;2.53;2.13;;;;;;;11.79;71.99;97283.50;5050972;28;20824;-70
2021/12/31 05:31:16;;;;;;;3.20;2.30;;;;;;;11.82;71.57;97284.03;5059487;28;20179;-68
2021/12/31 05:33:42;;;;;;;5.03;2.27;;;;;;;11.78;71.33;97287.94;5051776;28;20175;-68
2021/12/31 05:36:07;;;;;;;2.40;2.03;;;;;;;11.82;71.11;97296.31;5050924;28;20214;-68
2021/12/31 05:38:33;;;;;;;2.47;1.93;;;;;;;11.79;71.64;97286.13;5050689;28;20199;-69
2021/12/31 05:40:59;;;;;;;2.23;2.03;;;;;;;11.79;71.22;97286.97;5052311;28;20202;-69
2021/12/31 05:43:24;;;;;;;2.27;2.07;;;;;;;11.75;71.19;97293.50;5065895;28;20179;-70
2021/12/31 05:45:50;;;;;;;4.57;1.90;;;;;;;11.73;71.33;97298.09;5059155;28;20277;-69
2021/12/31 05:48:16;;;;;;;6.60;1.80;;;;;;;11.72;71.32;97293.81;5049792;28;20290;-69
2021/12/31 05:50:41;;;;;;;4.53;2.30;;;;;;;11.70;70.90;97287.91;5052689;28;20179;-68
2021/12/31 05:53:07;;;;;;;4.10;1.87;;;;;;;11.67;70.94;97285.59;5050862;28;20197;-70
2021/12/31 05:55:32;;;;;;;2.50;2.30;;;;;;;11.65;71.18;97275.28;5050931;28;20303;-69
2021/12/31 05:57:58;;;;;;;4.20;2.33;;;;;;;11.61;71.20;97262.59;5046216;28;20249;-68
2021/12/31 06:00:24;;;;;;;2.57;1.83;;;;;;;11.56;71.56;97252.56;5050668;28;20182;-68
2021/12/31 06:02:50;;;;;;;2.30;2.10;;;;;;;11.52;72.06;97262.56;5051866;28;20179;-69
2021/12/31 06:05:15;;;;;;;3.20;2.07;;;;;;;11.56;72.62;97267.50;5051030;28;20827;-67
2021/12/31 06:07:41;;;;;;;2.80;2.10;;;;;;;11.43;72.74;97263.50;5051087;28;20201;-67
2021/12/31 06:10:07;;;;;;;2.93;2.00;;;;;;;11.53;72.40;97269.47;5050600;28;20183;-67
2021/12/31 06:12:37;;;;;;;3.60;2.83;;;;;;;11.59;72.34;97268.00;5055919;28;20183;-68
2021/12/31 06:15:04;;;;;;;3.17;2.80;;;;;;;11.62;72.57;97272.94;5062563;28;20492;-69
2021/12/31 06:17:31;;;;;;;7.17;2.60;;;;;;;11.62;72.87;97272.13;5056846;28;20976;-68
2021/12/31 06:19:57;;;;;;;8.47;2.40;;;;;;;11.58;73.40;97273.44;5050568;28;20446;-69
2021/12/31 06:22:24;;;;;;;3.30;2.30;;;;;;;11.59;73.64;97285.56;5056107;28;20421;-68
2021/12/31 06:24:50;;;;;;;3.30;2.23;;;;;;;11.59;74.00;97286.38;5050954;28;20171;-68
2021/12/31 06:27:16;;;;;;;3.90;2.40;;;;;;;11.67;74.08;97288.22;5055229;28;20429;-68
2021/12/31 06:29:41;;;;;;;3.13;2.00;;;;;;;11.68;74.14;97284.63;5062326;28;20413;-68
2021/12/31 06:32:07;;;;;;;1.93;1.73;;;;;;;11.68;74.14;97287.25;5051186;28;20186;-68
2021/12/31 06:34:32;;;;;;;3.27;2.10;;;;;;;11.51;74.77;97281.91;5051133;28;20195;-67
2021/12/31 06:36:58;;;;;;;2.90;2.20;;;;;;;11.59;74.91;97288.19;5050206;28;20264;-67
2021/12/31 06:39:26;;;;;;;2.20;1.97;;;;;;;11.74;74.20;97289.22;5049439;28;20182;-69
2021/12/31 06:41:52;;;;;;;2.43;1.90;;;;;;;11.50;76.13;97285.50;5049458;28;20174;-70
2021/12/31 06:44:17;;;;;;;3.07;2.40;;;;;;;11.42;76.70;97282.00;5051039;28;20432;-69
2021/12/31 06:46:43;;;;;;;1.87;1.77;;;;;;;12.00;74.86;97271.81;5050872;28;20207;-68
2021/12/31 06:49:08;;;;;;;2.20;1.90;;;;;;;12.02;73.83;97277.72;5058952;28;20175;-69
2021/12/31 06:51:34;;;;;;;2.57;1.93;;;;;;;11.98;73.53;97279.81;5053298;28;20179;-69
2021/12/31 06:53:59;;;;;;;2.40;1.90;;;;;;;11.78;74.11;97287.13;5053633;28;20175;-69
2021/12/31 06:56:25;;;;;;;3.03;2.20;;;;;;;11.81;74.10;97271.88;5054925;28;20286;-69
2021/12/31 06:58:51;;;;;;;5.23;2.20;;;;;;;11.89;73.56;97273.72;5059841;28;20183;-69
2021/12/31 07:01:17;;;;;;;3.13;2.60;;;;;;;11.89;73.61;97271.09;5062523;28;20171;-68
2021/12/31 07:03:42;;;;;;;2.57;2.20;;;;;;;11.86;73.19;97281.06;5054666;28;20697;-68
2021/12/31 07:06:08;;;;;;;2.47;2.27;;;;;;;11.93;72.94;97282.09;5054413;28;20313;-68
2021/12/31 07:08:34;;;;;;;3.67;2.37;;;;;;;11.88;73.22;97284.38;5067944;28;20228;-69
2021/12/31 07:10:59;;;;;;;2.93;2.60;;;;;;;11.48;75.12;97303.22;5073741;28;20311;-69
2021/12/31 07:13:25;;;;;;;3.40;3.10;;;;;;;11.58;74.70;97310.97;5074152;28;20181;-68
2021/12/31 07:15:51;;;;;;;5.67;2.70;;;;;;;11.40;76.49;97302.38;5073867;28;20206;-69
2021/12/31 07:18:21;;;;;;;3.77;3.37;;;;;;;11.20;76.71;97315.69;5074183;28;20256;-68
2021/12/31 07:20:47;;;;;;;4.00;3.37;;;;;;;11.31;76.68;97304.91;5073981;28;20416;-73
2021/12/31 07:23:15;;;;;;;3.93;3.53;;;;;;;11.42;75.37;97308.25;5071283;28;20439;-68
2021/12/31 07:25:42;;;;;;;3.80;3.40;;;;;;;11.51;75.29;97302.91;5074303;28;20961;-68
2021/12/31 07:28:09;;;;;;;5.27;3.93;;;;;;;11.62;75.20;97299.19;5073948;28;20952;-69
2021/12/31 07:30:35;;;;;;;5.00;4.40;;;;;;;11.55;75.60;97300.78;5074178;28;20424;-70
2021/12/31 07:33:00;;;;;;;8.63;4.30;;;;;;;11.77;74.56;97296.81;5073667;28;20432;-69
2021/12/31 07:35:26;;;;;;;6.03;4.30;;;;;;;11.33;75.86;97294.28;5078063;28;20451;-68
2021/12/31 07:37:55;;;;;;;5.30;4.50;;;;;;;11.58;75.11;97292.59;5076821;28;20775;-69
2021/12/31 07:40:33;;;;;;;6.70;5.07;;;;;;;11.64;74.98;97293.78;5084209;28;20175;-69
2021/12/31 07:42:58;;;;;;;8.50;5.10;;;;;;;11.39;76.44;97296.28;5085668;28;20450;-70
2021/12/31 07:45:24;;;;;;;6.80;5.53;;;;;;;11.24;76.61;97296.03;5084859;28;20488;-69
2021/12/31 07:47:49;;;;;;;8.73;5.57;;;;;;;11.52;75.85;97283.56;5075832;28;20217;-69
2021/12/31 07:50:15;;;;;;;9.80;5.80;;;;;;;11.26;76.85;97283.59;5073399;28;20174;-69
2021/12/31 07:52:41;;;;;;;13.40;5.80;;;;;;;11.45;76.80;97290.44;5073998;28;20178;-69
2021/12/31 07:55:07;;;;;;;10.23;6.67;;;;;;;11.76;75.16;97294.34;5072424;28;20545;-69
2021/12/31 07:57:33;;;;;;;10.80;6.40;;;;;;;11.59;75.86;97296.06;5070531;28;20206;-70
2021/12/31 07:59:58;;;;;;;10.70;6.13;;;;;;;11.66;76.20;97304.97;5072925;28;20555;-68
2021/12/31 08:02:24;;;;;;;9.70;6.20;;;;;;;11.82;75.35;97305.03;5072425;28;20269;-68
2021/12/31 08:04:49;;;;;;;10.50;7.10;;;;;;;11.79;75.06;97304.50;5073190;28;20713;-70
2021/12/31 08:07:15;;;;;;;8.83;6.60;;;;;;;11.59;76.85;97303.94;5068258;28;20257;-70
2021/12/31 08:09:41;;;;;;;13.67;10.17;;;;;;;11.88;75.28;97302.75;5073055;28;20273;-69
2021/12/31 08:12:07;;;;;;;9.23;6.20;;;;;;;12.17;74.27;97302.38;5072024;28;20182;-68
2021/12/31 08:14:32;;;;;;;9.80;7.07;;;;;;;11.64;76.22;97312.16;5073157;28;20726;-68
2021/12/31 08:16:58;;;;;;;12.23;7.57;;;;;;;11.82;76.06;97310.28;5073130;28;20444;-69
2021/12/31 08:19:23;;;;;;;8.83;6.73;;;;;;;12.06;74.82;97305.31;5066218;28;20566;-69
2021/12/31 08:21:49;;;;;;;12.17;6.60;;;;;;;11.94;75.56;97304.75;5066819;28;20609;-68
2021/12/31 08:24:14;;;;;;;10.60;7.57;;;;;;;12.07;74.88;97305.16;5073263;28;20186;-68
2021/12/31 08:26:41;;;;;;;11.13;7.93;;;;;;;12.04;75.31;97307.25;5072907;28;20666;-69
2021/12/31 08:29:08;;;;;;;9.77;6.67;;;;;;;11.97;75.16;97317.56;5064279;28;20190;-69
2021/12/31 08:31:34;;;;;;;13.50;6.83;;;;;;;12.10;74.82;97312.69;5073091;28;20479;-69
2021/12/31 08:34:00;;;;;;;11.70;6.27;;;;;;;12.37;73.83;97312.63;5072811;28;20524;-68
2021/12/31 08:36:25;;;;;;;10.57;7.07;;;;;;;12.55;73.66;97307.22;5067367;28;20538;-67
2021/12/31 08:38:51;;;;;;;10.80;7.40;;;;;;;12.20;75.26;97312.56;5069693;28;20189;-73
2021/12/31 08:41:17;;;;;;;8.40;6.47;;;;;;;12.41;73.83;97306.88;5072523;28;20182;-70
2021/12/31 08:43:42;;;;;;;10.50;7.07;;;;;;;12.55;73.61;97296.72;5072816;28;20206;-69
2021/12/31 08:46:08;;;;;;;9.60;6.80;;;;;;;12.70;73.28;97291.63;5072608;28;20349;-69
2021/12/31 08:48:33;;;;;;;8.37;6.27;;;;;;;12.60;73.63;97292.63;5072058;28;20630;-69
2021/12/31 08:50:59;;;;;;;12.17;7.40;;;;;;;12.68;72.68;97297.06;5070923;28;20190;-71
2021/12/31 08:53:25;;;;;;;9.63;6.40;;;;;;;12.52;73.98;97289.16;5064941;28;20195;-69
2021/12/31 08:55:50;;;;;;;9.87;7.37;;;;;;;12.63;73.20;97278.31;5072349;28;20203;-69
2021/12/31 08:58:16;;;;;;;11.63;7.40;;;;;;;12.55;73.84;97276.50;5061059;28;20285;-69
2021/12/31 09:00:41;;;;;;;11.70;7.87;;;;;;;12.55;74.04;97279.13;5072549;28;20187;-69
2021/12/31 09:03:07;;;;;;;11.27;7.80;;;;;;;12.23;75.53;97275.47;5066445;28;20235;-69
2021/12/31 09:05:33;;;;;;;9.70;7.67;;;;;;;12.21;75.42;97282.69;5066933;28;20183;-69
2021/12/31 09:07:59;;;;;;;10.33;7.77;;;;;;;12.17;75.71;97293.69;5063405;28;20209;-69
2021/12/31 09:10:25;;;;;;;12.00;8.03;;;;;;;12.08;75.60;97296.31;5034939;28;20198;-69
2021/12/31 09:12:50;;;;;;;12.47;8.30;;;;;;;12.29;75.82;97284.53;5071026;28;20432;-69
2021/12/31 09:15:16;;;;;;;12.60;8.57;;;;;;;12.53;74.50;97281.13;5073720;28;20208;-69
2021/12/31 09:17:43;;;;;;;11.27;8.07;;;;;;;12.52;75.16;97276.84;5073374;28;20826;-70
2021/12/31 09:20:10;;;;;;;10.60;8.17;;;;;;;12.84;73.32;97284.91;5071850;28;20424;-69
2021/12/31 09:22:35;;;;;;;11.00;8.20;;;;;;;12.86;73.50;97280.28;5069312;28;20497;-70
2021/12/31 09:25:01;;;;;;;10.63;8.43;;;;;;;13.02;72.78;97282.91;5071832;28;20452;-69
2021/12/31 09:27:27;;;;;;;12.57;7.60;;;;;;;12.74;73.45;97290.31;5071743;28;20206;-69
2021/12/31 09:29:53;;;;;;;10.10;7.97;;;;;;;13.08;72.32;97291.13;5036736;28;20189;-69
2021/12/31 09:32:19;;;;;;;9.57;8.00;;;;;;;12.92;73.01;97290.16;5071910;28;20421;-69
2021/12/31 09:34:46;;;;;;;10.60;7.97;;;;;;;12.92;72.20;97282.28;5071455;28;20210;-69
2021/12/31 09:37:12;;;;;;;8.93;6.70;;;;;;;12.89;72.91;97270.28;5066926;28;20437;-68
2021/12/31 09:39:37;;;;;;;11.87;8.20;;;;;;;13.17;72.08;97279.63;5071868;28;20436;-68
2021/12/31 09:42:07;;;;;;;10.17;7.27;;;;;;;13.28;71.43;97284.53;5063182;28;20220;-69
2021/12/31 09:44:34;;;;;;;11.27;7.93;;;;;;;13.43;71.22;97289.13;5071669;28;20185;-68
2021/12/31 09:46:59;;;;;;;11.17;7.80;;;;;;;13.24;71.67;97279.75;5071125;28;20480;-69
2021/12/31 09:49:25;;;;;;;9.00;7.60;;;;;;;13.55;70.61;97279.88;5071883;28;20523;-68
2021/12/31 09:51:51;;;;;;;11.80;8.33;;;;;;;13.21;71.62;97278.31;5071725;28;20522;-69
2021/12/31 09:54:21;;;;;;;11.33;7.83;;;;;;;13.20;71.43;97285.34;5071661;28;20193;-68
2021/12/31 09:56:48;;;;;;;11.23;8.70;;;;;;;13.47;70.93;97287.81;5067098;28;20569;-70
2021/12/31 09:59:13;;;;;;;9.70;7.57;;;;;;;13.45;70.73;97281.91;5055325;28;20907;-68
2021/12/31 10:01:46;;;;;;;10.43;7.80;;;;;;;13.23;71.42;97292.13;5071336;28;20421;-70
2021/12/31 10:04:12;;;;;;;10.17;7.90;;;;;;;13.00;72.11;97295.41;5073222;28;20183;-70
2021/12/31 10:06:38;;;;;;;8.03;6.70;;;;;;;13.20;71.91;97301.16;5070888;28;20462;-69
2021/12/31 10:09:03;;;;;;;9.53;7.17;;;;;;;13.39;71.26;97295.69;5052516;28;20278;-68
2021/12/31 10:11:29;;;;;;;9.83;7.30;;;;;;;13.57;70.44;97290.25;5072342;28;20621;-68
2021/12/31 10:13:57;;;;;;;9.70;7.87;;;;;;;13.69;70.24;97290.72;5071904;28;20453;-68
2021/12/31 10:16:25;;;;;;;10.53;7.60;;;;;;;13.71;70.03;97283.47;5070342;28;20202;-70
2021/12/31 10:19:11;;;;;;;10.10;8.17;;;;;;;13.61;70.37;97278.38;5063486;28;20927;-69
2021/12/31 10:21:46;;;;;;;13.43;7.13;;;;;;;13.37;71.07;97278.25;5070534;28;20523;-70
2021/12/31 10:24:28;;;;;;;8.40;7.30;;;;;;;13.52;70.83;97270.53;5071903;28;20420;-69
2021/12/31 10:26:59;;;;;;;9.37;7.00;;;;;;;13.74;69.93;97262.03;5065653;28;20440;-69
2021/12/31 10:29:25;;;;;;;10.00;7.60;;;;;;;14.10;68.77;97257.09;5067624;28;20417;-70
2021/12/31 10:31:52;;;;;;;9.67;7.87;;;;;;;13.92;69.36;97251.28;5076146;28;20424;-69
2021/12/31 10:34:43;;;;;;;11.77;7.70;;;;;;;14.06;68.71;97250.50;5075620;28;20428;-70
2021/12/31 10:37:14;;;;;;;8.90;7.13;;;;;;;13.86;69.47;97241.41;5066196;28;20952;-68
2021/12/31 10:39:40;;;;;;;10.13;7.20;;;;;;;13.64;70.40;97238.56;5053130;28;20477;-69
2021/12/31 10:42:13;;;;;;;10.70;7.33;;;;;;;13.59;70.36;97232.97;5075329;28;20416;-68
2021/12/31 10:44:48;;;;;;;8.00;6.57;;;;;;;13.88;69.49;97237.59;5066980;28;20424;-69
2021/12/31 10:47:15;;;;;;;7.33;6.53;;;;;;;14.17;68.66;97240.59;5065890;28;20491;-69
2021/12/31 10:50:14;;;;;;;6.80;5.27;;;;;;;14.09;68.81;97228.28;5073349;28;20472;-70
2021/12/31 10:53:11;;;;;;;6.10;5.50;;;;;;;14.18;68.15;97224.59;5066383;28;20424;-68
2021/12/31 10:55:41;;;;;;;6.60;4.83;;;;;;;14.36;67.33;97234.06;5068355;28;20970;-69
2021/12/31 10:58:12;;;;;;;5.70;5.03;;;;;;;14.44;66.61;97239.25;5063420;28;20452;-69
2021/12/31 11:00:43;;;;;;;5.53;4.93;;;;;;;14.19;67.10;97228.03;5074541;28;20428;-69
2021/12/31 11:03:09;;;;;;;4.53;4.10;;;;;;;14.54;66.71;97226.66;5074559;28;20513;-68
2021/12/31 11:05:35;;;;;;;5.13;4.63;;;;;;;14.63;66.32;97234.47;5074987;28;20434;-69
2021/12/31 11:08:04;;;;;;;7.57;5.33;;;;;;;14.31;66.92;97226.63;5069136;28;20452;-69
2021/12/31 11:10:35;;;;;;;7.13;5.80;;;;;;;14.08;68.10;97226.66;5066126;28;20421;-71
2021/12/31 11:13:06;;;;;;;7.50;5.10;;;;;;;14.11;68.26;97236.84;5074340;28;20425;-69
2021/12/31 11:15:31;;;;;;;7.13;5.63;;;;;;;13.86;68.66;97230.88;5072917;28;21029;-69
2021/12/31 11:17:57;;;;;;;6.60;5.63;;;;;;;14.20;67.76;97219.16;5074125;28;20543;-69
2021/12/31 11:20:24;;;;;;;7.33;6.00;;;;;;;14.81;65.96;97221.00;5074095;28;20590;-68
2021/12/31 11:22:51;;;;;;;6.53;5.23;;;;;;;14.52;66.93;97220.72;5068452;28;20186;-68
2021/12/31 11:25:17;;;;;;;5.97;5.37;;;;;;;14.78;65.95;97219.56;5074680;28;20416;-69
2021/12/31 11:27:45;;;;;;;6.23;4.90;;;;;;;15.09;64.78;97205.41;5074795;28;20927;-69
2021/12/31 11:30:37;;;;;;;5.03;4.40;;;;;;;14.52;66.66;97202.25;5066301;28;20217;-70
2021/12/31 11:33:14;;;;;;;4.80;4.30;;;;;;;15.06;64.83;97208.41;5075232;28;20413;-68